createdAt,value
2022-09-21T00:00:48.554Z,100874.34
2022-09-21T00:04:00.646Z,100875.94
2022-09-21T00:07:28.420Z,100846.91
2022-09-21T00:11:03.393Z,100872.16
2022-09-21T00:14:46.951Z,100875.69
2022-09-21T00:18:00.598Z,100880.84
2022-09-21T00:21:13.058Z,100882.62
2022-09-21T00:24:27.382Z,100870.28
2022-09-21T00:27:49.178Z,100862.28
2022-09-21T00:31:24.487Z,100879.06
2022-09-21T00:34:53.792Z,100879.06
2022-09-21T00:38:21.419Z,100882.66
2022-09-21T00:41:56.887Z,100879.31
2022-09-21T00:45:31.620Z,100873.19
2022-09-21T00:48:34.838Z,100854.94
2022-09-21T00:52:12.359Z,100825.22
2022-09-21T00:55:33.383Z,100889.41
2022-09-21T00:58:42.211Z,100870.16
2022-09-21T01:01:57.457Z,100864.91
2022-09-21T01:05:07.911Z,100867.50
2022-09-21T01:08:19.639Z,100889.50
2022-09-21T01:12:06.451Z,100868.41
2022-09-21T01:15:45.374Z,100892.09
2022-09-21T01:19:47.658Z,100879.72
2022-09-21T01:24:02.594Z,100863.78
2022-09-21T01:27:53.387Z,100890.91
2022-09-21T01:31:05.383Z,100882.00
2022-09-21T01:34:39.180Z,100891.53
2022-09-21T01:38:06.383Z,100892.38
2022-09-21T01:41:11.831Z,100885.25
2022-09-21T01:44:36.410Z,100881.75
2022-09-21T01:47:47.391Z,100866.06
2022-09-21T01:50:57.821Z,100897.69
2022-09-21T01:54:19.392Z,100903.88
2022-09-21T01:58:14.390Z,100891.59
2022-09-21T02:01:27.967Z,100903.03
2022-09-21T02:04:42.487Z,100908.44
2022-09-21T02:08:08.994Z,100903.16
2022-09-21T02:11:44.659Z,100884.81
2022-09-21T02:15:44.798Z,100891.88
2022-09-21T02:19:35.443Z,100907.63
2022-09-21T02:23:26.650Z,100906.91
2022-09-21T02:27:16.406Z,100904.22
2022-09-21T02:30:33.403Z,100906.84
2022-09-21T02:33:48.054Z,100913.91
2022-09-21T02:37:13.667Z,100907.13
2022-09-21T02:41:17.402Z,100901.94
2022-09-21T02:44:54.446Z,100892.22
2022-09-21T02:48:17.414Z,100901.91
2022-09-21T02:51:37.546Z,100924.84
2022-09-21T02:54:42.818Z,100878.50
2022-09-21T02:58:20.410Z,100923.16
2022-09-21T03:01:56.442Z,100908.09
2022-09-21T03:05:18.229Z,100902.91
2022-09-21T03:08:33.459Z,100923.81
2022-09-21T03:11:41.941Z,100918.63
2022-09-21T03:14:52.719Z,100924.87
2022-09-21T03:18:20.843Z,100937.28
2022-09-21T03:21:48.420Z,100946.25
2022-09-21T03:25:36.743Z,100926.97
2022-09-21T03:28:51.456Z,100940.25
2022-09-21T03:32:00.289Z,100946.56
2022-09-21T03:35:08.401Z,100949.25
2022-09-21T03:38:18.419Z,100947.44
2022-09-21T03:41:26.406Z,100947.47
2022-09-21T03:44:41.635Z,100953.56
2022-09-21T03:48:34.432Z,100951.78
2022-09-21T03:51:36.087Z,100950.84
2022-09-21T03:54:50.422Z,100950.75
2022-09-21T03:57:59.240Z,100951.66
2022-09-21T04:01:08.439Z,100940.38
2022-09-21T04:04:18.005Z,100954.38
2022-09-21T04:07:52.729Z,100960.59
2022-09-21T04:11:34.520Z,100960.62
2022-09-21T04:15:09.423Z,100946.66
2022-09-21T04:19:04.427Z,100962.41
2022-09-21T04:22:32.444Z,100953.50
2022-09-21T04:26:08.419Z,100948.25
2022-09-21T04:29:23.447Z,100932.50
2022-09-21T04:32:25.234Z,100943.91
2022-09-21T04:35:39.425Z,100956.16
2022-09-21T04:38:48.646Z,100974.69
2022-09-21T04:42:17.431Z,100977.41
2022-09-21T04:45:48.432Z,100990.81
2022-09-21T04:49:03.462Z,100995.25
2022-09-21T04:52:05.651Z,100980.47
2022-09-21T04:55:20.688Z,101001.62
2022-09-21T04:59:11.885Z,100998.22
2022-09-21T05:02:40.275Z,101001.09
2022-09-21T05:06:08.380Z,101009.69
2022-09-21T05:09:23.489Z,101007.81
2022-09-21T05:12:25.109Z,101007.50
2022-09-21T05:15:39.510Z,100999.47
2022-09-21T05:18:48.037Z,100999.31
2022-09-21T05:21:56.480Z,100983.31
2022-09-21T05:25:12.454Z,100989.22
2022-09-21T05:28:15.668Z,100995.16
2022-09-21T05:32:24.444Z,100985.53
2022-09-21T05:35:42.487Z,100996.09
2022-09-21T05:39:00.430Z,101004.53
2022-09-21T05:42:03.400Z,101015.31
2022-09-21T05:45:26.433Z,101020.31
2022-09-21T05:49:36.343Z,101008.47
2022-09-21T05:54:01.643Z,101009.25
2022-09-21T05:57:44.464Z,101008.38
2022-09-21T06:01:30.270Z,101012.87
2022-09-21T06:04:32.715Z,101020.09
2022-09-21T06:07:48.467Z,101013.16
2022-09-21T06:11:03.208Z,101007.88
2022-09-21T06:14:12.556Z,101020.94
2022-09-21T06:21:44.540Z,101032.97
2022-09-21T06:24:56.221Z,101028.56
2022-09-21T06:28:27.972Z,100858.69
2022-09-21T06:32:09.372Z,101030.28
2022-09-21T06:39:17.706Z,101045.69
2022-09-21T06:43:19.146Z,101032.69
2022-09-21T06:47:11.996Z,101041.13
2022-09-21T08:03:10.829Z,101055.62
2022-09-21T09:31:27.678Z,101052.19
2022-09-21T09:50:54.616Z,101042.16
2022-09-21T10:02:58.869Z,100904.19
2022-09-21T10:06:45.104Z,101018.28
2022-09-21T10:17:39.780Z,100978.22
2022-09-21T10:26:13.812Z,100870.53
2022-09-21T10:29:54.611Z,100979.28
2022-09-21T10:34:08.135Z,100857.69
2022-09-21T10:37:42.444Z,101018.88
2022-09-21T11:00:32.847Z,101027.28
2022-09-21T12:52:38.974Z,100913.75
2022-09-21T12:56:37.716Z,100942.94
2022-09-21T13:08:40.228Z,100930.91
2022-09-21T13:12:25.107Z,100924.00
2022-09-21T13:16:34.672Z,100925.66
2022-09-21T13:20:08.716Z,100818.09
2022-09-21T13:23:48.742Z,100932.63
2022-09-21T13:27:18.768Z,100928.41
2022-09-21T13:31:41.326Z,100919.06
2022-09-21T13:35:38.435Z,100769.75
2022-09-21T13:43:23.750Z,100933.81
2022-09-21T13:46:59.604Z,100892.00
2022-09-21T13:50:37.610Z,100914.91
2022-09-21T13:54:06.278Z,100899.94
2022-09-21T13:57:26.636Z,100901.25
2022-09-21T14:00:41.794Z,100904.28
2022-09-21T14:15:52.698Z,100910.22
2022-09-21T14:31:43.145Z,100915.63
2022-09-21T14:43:12.780Z,100917.66
2022-09-21T14:51:46.631Z,100871.25
2022-09-21T15:02:52.042Z,100911.91
2022-09-21T15:10:57.720Z,100834.78
2022-09-21T15:33:11.756Z,100912.41
2022-09-21T15:55:53.035Z,100918.91
2022-09-21T16:51:38.715Z,100954.88
2022-09-21T16:58:53.655Z,100959.97
2022-09-21T17:02:26.616Z,100969.91
2022-09-21T17:09:00.707Z,100975.66
2022-09-21T17:12:59.561Z,100972.31
2022-09-21T17:20:41.283Z,100983.31
2022-09-21T17:31:38.714Z,100990.19
2022-09-21T17:35:29.612Z,100997.38
2022-09-21T17:39:00.706Z,101004.75
2022-09-21T17:51:03.662Z,101006.41
2022-09-21T17:57:31.410Z,100997.84
2022-09-21T17:58:30.701Z,101014.19
2022-09-21T18:02:02.016Z,101025.66
2022-09-21T18:05:27.839Z,100956.03
2022-09-21T18:09:00.995Z,101034.88
2022-09-21T18:15:57.659Z,101026.19
2022-09-21T18:28:17.354Z,101049.12
2022-09-21T18:32:06.368Z,101047.53
2022-09-21T18:35:48.891Z,101043.34
2022-09-21T18:39:44.212Z,101043.50
2022-09-21T18:43:36.588Z,101056.06
2022-09-21T19:02:28.748Z,101061.06
2022-09-21T19:23:25.328Z,101065.84
2022-09-21T19:31:02.735Z,101063.66
2022-09-21T19:34:40.819Z,101060.87
2022-09-21T19:42:30.375Z,101057.72
2022-09-21T19:46:23.785Z,100975.41
2022-09-21T19:54:56.471Z,101051.66
2022-09-21T21:02:03.350Z,101066.50
2022-09-21T21:36:20.876Z,101059.88
2022-09-21T21:39:54.102Z,101054.63
2022-09-21T21:43:19.028Z,101050.34
2022-09-21T21:50:33.847Z,101058.31
2022-09-21T22:01:46.854Z,101061.81
2022-09-21T22:04:55.940Z,101046.16
2022-09-21T22:08:30.735Z,101057.47
2022-09-21T22:14:59.124Z,101061.28
2022-09-21T22:15:39.570Z,101014.69
2022-09-21T22:22:52.808Z,100972.78
2022-09-21T22:30:22.933Z,101061.44
2022-09-21T22:33:38.782Z,101057.84
2022-09-21T22:40:53.143Z,101050.03
2022-09-21T22:44:20.883Z,101026.38
2022-09-21T22:47:49.270Z,100870.31
2022-09-21T22:51:04.830Z,100912.41
2022-09-21T22:54:13.967Z,100857.09
2022-09-21T22:57:22.304Z,100884.44
2022-09-21T23:00:36.863Z,100966.81
2022-09-21T23:03:40.349Z,101037.94
2022-09-21T23:06:55.735Z,101026.63
2022-09-21T23:10:04.472Z,101026.69
2022-09-21T23:13:12.760Z,101028.31
2022-09-21T23:16:22.004Z,101027.47
2022-09-21T23:19:29.872Z,101030.19
2022-09-21T23:22:39.096Z,101024.03
2022-09-21T23:25:53.819Z,101004.88
2022-09-21T23:29:04.775Z,101019.78
2022-09-21T23:32:39.800Z,101037.44
2022-09-21T23:35:51.143Z,101005.81
2022-09-21T23:39:20.756Z,101034.78
2022-09-21T23:43:15.978Z,101027.03
2022-09-21T23:46:37.052Z,101020.84
2022-09-21T23:50:20.780Z,101037.50
2022-09-21T23:53:50.172Z,101029.56
2022-09-21T23:57:04.818Z,101028.84
